createdAt,value
2018-07-26T00:01:08.031Z,3.77
2018-07-26T00:03:36.881Z,3.60
2018-07-26T00:06:05.748Z,4.13
2018-07-26T00:08:34.671Z,3.93
2018-07-26T00:11:03.573Z,3.93
2018-07-26T00:13:32.455Z,3.97
2018-07-26T00:16:01.490Z,3.90
2018-07-26T00:18:30.407Z,4.00
2018-07-26T00:20:59.309Z,3.97
2018-07-26T00:23:28.217Z,3.90
2018-07-26T00:25:57.048Z,4.33
2018-07-26T00:28:25.845Z,4.10
2018-07-26T00:30:54.714Z,3.93
2018-07-26T00:33:23.726Z,3.60
2018-07-26T00:35:52.584Z,4.20
2018-07-26T00:38:21.452Z,4.27
2018-07-26T00:40:50.306Z,4.10
2018-07-26T00:43:19.191Z,4.30
2018-07-26T00:45:48.130Z,3.93
2018-07-26T00:48:17.166Z,3.73
2018-07-26T00:50:46.024Z,3.50
2018-07-26T00:53:14.888Z,3.70
2018-07-26T00:55:43.731Z,3.70
2018-07-26T00:58:12.672Z,3.93
2018-07-26T01:00:41.585Z,4.40
2018-07-26T01:03:10.494Z,3.90
2018-07-26T01:05:39.377Z,4.27
2018-07-26T01:08:08.293Z,3.10
2018-07-26T01:10:37.206Z,4.60
2018-07-26T01:13:06.169Z,3.93
2018-07-26T01:15:35.153Z,4.40
2018-07-26T01:18:04.068Z,4.13
2018-07-26T01:20:33.002Z,4.33
2018-07-26T01:23:01.938Z,4.37
2018-07-26T01:25:30.897Z,4.67
2018-07-26T01:27:59.885Z,4.57
2018-07-26T01:30:28.856Z,4.30
2018-07-26T01:32:57.741Z,4.30
2018-07-26T01:35:26.632Z,4.40
2018-07-26T01:37:55.630Z,4.10
2018-07-26T01:40:24.624Z,4.40
2018-07-26T01:43:04.544Z,4.57
2018-07-26T01:45:33.386Z,4.17
2018-07-26T01:48:02.237Z,4.03
2018-07-26T01:50:31.135Z,4.33
2018-07-26T01:53:00.073Z,4.20
2018-07-26T01:55:29.017Z,4.20
2018-07-26T01:57:57.908Z,4.37
2018-07-26T02:00:26.758Z,4.00
2018-07-26T02:02:55.592Z,3.60
2018-07-26T02:05:24.483Z,4.47
2018-07-26T02:07:53.332Z,3.80
2018-07-26T02:10:22.184Z,3.93
2018-07-26T02:12:51.089Z,3.57
2018-07-26T02:15:19.938Z,3.87
2018-07-26T02:17:48.776Z,3.57
2018-07-26T02:20:17.662Z,3.83
2018-07-26T02:22:46.562Z,3.73
2018-07-26T02:25:15.449Z,3.57
2018-07-26T02:27:44.401Z,4.27
2018-07-26T02:30:13.256Z,3.90
2018-07-26T02:32:42.078Z,4.67
2018-07-26T02:35:10.969Z,4.20
2018-07-26T02:37:39.962Z,3.90
2018-07-26T02:40:08.804Z,4.13
2018-07-26T02:42:37.600Z,4.10
2018-07-26T02:45:06.474Z,3.97
2018-07-26T02:47:35.378Z,4.00
2018-07-26T02:50:04.303Z,4.53
2018-07-26T02:52:33.126Z,4.10
2018-07-26T02:55:01.934Z,4.03
2018-07-26T02:57:30.812Z,4.10
2018-07-26T02:59:59.604Z,4.07
2018-07-26T03:02:28.412Z,4.33
2018-07-26T03:04:57.279Z,4.13
2018-07-26T03:07:26.086Z,4.07
2018-07-26T03:09:54.932Z,4.23
2018-07-26T03:12:23.742Z,4.20
2018-07-26T03:14:52.641Z,3.67
2018-07-26T03:17:21.521Z,4.10
2018-07-26T03:19:51.091Z,4.20
2018-07-26T03:22:19.877Z,4.30
2018-07-26T03:24:48.685Z,4.80
2018-07-26T03:27:17.540Z,4.20
2018-07-26T03:29:46.522Z,4.70
2018-07-26T03:32:15.537Z,4.20
2018-07-26T03:34:44.477Z,4.37
2018-07-26T03:37:13.325Z,4.70
2018-07-26T03:39:42.238Z,4.40
2018-07-26T03:42:11.167Z,4.70
2018-07-26T03:44:40.078Z,4.00
2018-07-26T03:47:08.925Z,4.23
2018-07-26T03:49:37.886Z,4.77
2018-07-26T03:52:06.925Z,4.50
2018-07-26T03:54:35.936Z,4.90
2018-07-26T03:57:04.938Z,4.13
2018-07-26T03:59:33.877Z,3.93
2018-07-26T04:02:02.747Z,3.97
2018-07-26T04:04:31.641Z,4.33
2018-07-26T04:07:02.883Z,5.67
2018-07-26T04:09:31.874Z,3.97
2018-07-26T04:12:00.801Z,3.87
2018-07-26T04:14:29.704Z,4.07
2018-07-26T04:16:58.553Z,4.10
2018-07-26T04:19:27.454Z,3.90
2018-07-26T04:21:56.574Z,3.90
2018-07-26T04:24:25.497Z,4.23
2018-07-26T04:26:54.364Z,3.93
2018-07-26T04:29:23.208Z,3.97
2018-07-26T04:31:52.146Z,4.80
2018-07-26T04:34:21.005Z,3.97
2018-07-26T04:36:49.866Z,3.83
2018-07-26T04:39:18.680Z,3.83
2018-07-26T04:41:47.609Z,4.23
2018-07-26T04:44:16.439Z,3.83
2018-07-26T04:46:45.479Z,3.63
2018-07-26T04:49:14.412Z,3.93
2018-07-26T04:51:43.232Z,4.33
2018-07-26T04:54:12.066Z,4.37
2018-07-26T04:56:41.020Z,4.40
2018-07-26T04:59:09.809Z,4.57
2018-07-26T05:01:38.690Z,4.67
2018-07-26T05:04:07.567Z,4.90
2018-07-26T05:06:36.370Z,5.00
2018-07-26T05:09:07.202Z,5.10
2018-07-26T05:11:36.056Z,4.50
2018-07-26T05:14:04.902Z,5.00
2018-07-26T05:16:33.896Z,4.23
2018-07-26T05:19:02.890Z,4.10
2018-07-26T05:21:31.699Z,3.63
2018-07-26T05:24:00.809Z,3.80
2018-07-26T05:26:29.741Z,3.77
2018-07-26T05:28:58.676Z,3.83
2018-07-26T05:31:27.598Z,3.63
2018-07-26T05:33:56.483Z,3.70
2018-07-26T05:36:25.365Z,3.60
2018-07-26T05:38:54.923Z,3.90
2018-07-26T05:41:23.969Z,4.30
2018-07-26T05:43:52.777Z,4.40
2018-07-26T05:46:21.724Z,4.07
2018-07-26T05:48:50.645Z,4.13
2018-07-26T05:51:19.468Z,4.30
2018-07-26T05:53:48.292Z,3.80
2018-07-26T05:56:17.242Z,3.93
2018-07-26T05:58:46.181Z,4.80
2018-07-26T06:01:15.079Z,4.20
2018-07-26T06:03:44.021Z,4.00
2018-07-26T06:06:13.041Z,4.50
2018-07-26T06:08:41.996Z,3.93
2018-07-26T06:11:10.905Z,4.47
2018-07-26T06:13:39.778Z,4.60
2018-07-26T06:16:08.671Z,4.67
2018-07-26T06:18:38.340Z,4.30
2018-07-26T06:21:07.404Z,4.77
2018-07-26T06:23:36.206Z,4.73
2018-07-26T06:26:05.298Z,4.63
2018-07-26T06:28:34.216Z,4.70
2018-07-26T06:31:03.104Z,5.60
2018-07-26T06:33:32.117Z,5.60
2018-07-26T06:36:00.979Z,5.00
2018-07-26T06:38:31.214Z,5.27
2018-07-26T06:41:01.152Z,5.30
2018-07-26T06:43:30.052Z,5.40
2018-07-26T06:45:58.972Z,5.00
2018-07-26T06:48:27.766Z,5.30
2018-07-26T06:50:56.578Z,5.03
2018-07-26T06:53:25.363Z,4.83
2018-07-26T06:55:54.325Z,5.13
2018-07-26T06:58:23.092Z,5.60
2018-07-26T07:00:52.042Z,5.20
2018-07-26T07:03:20.969Z,5.30
2018-07-26T07:05:49.850Z,5.30
2018-07-26T07:08:18.737Z,4.90
2018-07-26T07:10:47.683Z,4.93
2018-07-26T07:13:16.628Z,4.77
2018-07-26T07:15:45.422Z,4.30
2018-07-26T07:18:14.296Z,4.93
2018-07-26T07:20:43.096Z,5.47
2018-07-26T07:23:11.917Z,5.07
2018-07-26T07:25:40.793Z,5.13
2018-07-26T07:28:09.606Z,5.37
2018-07-26T07:30:38.384Z,5.37
2018-07-26T07:33:07.236Z,5.20
2018-07-26T07:35:36.001Z,5.30
2018-07-26T07:38:04.867Z,5.03
2018-07-26T07:40:33.762Z,4.53
2018-07-26T07:43:02.553Z,4.70
2018-07-26T07:45:31.334Z,5.30
2018-07-26T07:48:00.116Z,4.50
2018-07-26T07:50:29.029Z,4.50
2018-07-26T07:52:57.950Z,4.77
2018-07-26T07:55:26.767Z,5.17
2018-07-26T07:57:55.580Z,5.10
2018-07-26T08:00:24.446Z,4.93
2018-07-26T08:02:53.365Z,4.47
2018-07-26T08:05:22.189Z,4.87
2018-07-26T08:07:50.991Z,4.73
2018-07-26T08:10:19.877Z,4.30
2018-07-26T08:12:48.681Z,4.77
2018-07-26T08:15:17.550Z,4.13
2018-07-26T08:17:46.422Z,4.70
2018-07-26T08:20:15.352Z,4.07
2018-07-26T08:22:44.166Z,4.20
2018-07-26T08:25:13.013Z,5.10
2018-07-26T08:27:41.823Z,4.50
2018-07-26T08:30:11.728Z,4.47
2018-07-26T08:32:40.553Z,4.60
2018-07-26T08:35:09.499Z,4.77
2018-07-26T08:37:38.261Z,5.13
2018-07-26T08:40:07.393Z,5.50
2018-07-26T08:42:36.304Z,5.20
2018-07-26T08:45:05.153Z,4.70
2018-07-26T08:47:33.980Z,5.50
2018-07-26T08:50:02.781Z,5.90
2018-07-26T08:52:31.578Z,4.87
2018-07-26T08:55:00.447Z,5.27
2018-07-26T08:57:29.294Z,5.57
2018-07-26T08:59:58.064Z,5.67
2018-07-26T09:02:26.962Z,5.60
2018-07-26T09:04:55.775Z,5.60
2018-07-26T09:07:24.614Z,5.37
2018-07-26T09:09:53.472Z,5.40
2018-07-26T09:12:22.405Z,5.73
2018-07-26T09:14:51.165Z,4.97
2018-07-26T09:17:19.980Z,5.73
2018-07-26T09:19:48.850Z,5.37
2018-07-26T09:22:17.634Z,5.20
2018-07-26T09:24:46.613Z,4.73
2018-07-26T09:27:15.390Z,6.00
2018-07-26T09:29:44.213Z,5.50
2018-07-26T09:32:13.774Z,5.10
2018-07-26T09:34:42.571Z,5.17
2018-07-26T09:37:11.414Z,4.80
2018-07-26T09:39:40.330Z,5.60
2018-07-26T09:42:09.084Z,5.23
2018-07-26T09:44:37.903Z,4.87
2018-07-26T09:47:06.739Z,4.67
2018-07-26T09:49:35.521Z,5.23
2018-07-26T09:52:04.357Z,5.37
2018-07-26T09:54:33.184Z,4.63
2018-07-26T09:57:02.023Z,4.80
2018-07-26T09:59:30.854Z,4.97
2018-07-26T10:01:59.696Z,4.70
2018-07-26T10:04:28.569Z,4.57
2018-07-26T10:06:57.394Z,4.77
2018-07-26T10:09:26.277Z,4.20
2018-07-26T10:11:55.187Z,4.20
2018-07-26T10:14:24.001Z,4.50
2018-07-26T10:16:52.855Z,4.30
2018-07-26T10:19:21.750Z,4.30
2018-07-26T10:21:50.564Z,4.43
2018-07-26T10:24:19.550Z,4.50
2018-07-26T10:26:48.334Z,4.50
2018-07-26T10:29:17.093Z,4.30
2018-07-26T10:31:46.017Z,4.67
2018-07-26T10:34:14.796Z,3.80
2018-07-26T10:36:43.563Z,3.70
2018-07-26T10:39:12.817Z,4.30
2018-07-26T10:41:41.678Z,4.00
2018-07-26T10:44:10.553Z,4.03
2018-07-26T10:46:39.526Z,4.40
2018-07-26T10:49:08.384Z,4.50
2018-07-26T10:51:37.300Z,3.97
2018-07-26T10:54:06.300Z,4.50
2018-07-26T10:56:35.192Z,4.17
2018-07-26T10:59:04.025Z,4.40
2018-07-26T11:01:32.882Z,4.40
2018-07-26T11:04:01.765Z,4.80
2018-07-26T11:06:30.634Z,4.33
2018-07-26T11:08:59.506Z,4.70
2018-07-26T11:11:28.313Z,4.67
2018-07-26T11:13:57.146Z,4.80
2018-07-26T11:16:26.043Z,4.70
2018-07-26T11:18:54.985Z,4.40
2018-07-26T11:21:23.779Z,4.40
2018-07-26T11:23:52.659Z,4.30
2018-07-26T11:26:21.503Z,4.67
2018-07-26T11:28:50.262Z,4.53
2018-07-26T11:31:19.268Z,4.30
2018-07-26T11:33:48.063Z,3.93
2018-07-26T11:36:16.951Z,4.20
2018-07-26T11:38:45.909Z,4.27
2018-07-26T11:41:14.943Z,4.33
2018-07-26T11:43:43.776Z,4.23
2018-07-26T11:46:12.732Z,4.90
2018-07-26T11:48:41.893Z,4.70
2018-07-26T11:51:10.687Z,4.57
2018-07-26T11:53:39.626Z,4.20
2018-07-26T11:56:08.529Z,5.13
2018-07-26T11:58:37.417Z,4.50
2018-07-26T12:01:06.393Z,4.63
2018-07-26T12:03:35.212Z,4.50
2018-07-26T12:06:04.156Z,4.37
2018-07-26T12:08:33.038Z,4.53
2018-07-26T12:11:01.921Z,4.53
2018-07-26T12:13:30.879Z,4.37
2018-07-26T12:15:59.739Z,3.90
2018-07-26T12:18:28.573Z,4.50
2018-07-26T12:20:57.503Z,3.93
2018-07-26T12:23:26.411Z,4.03
2018-07-26T12:25:55.372Z,4.33
2018-07-26T12:28:24.237Z,4.17
2018-07-26T12:30:53.173Z,3.83
2018-07-26T12:33:22.090Z,3.90
2018-07-26T12:35:50.992Z,3.90
2018-07-26T12:38:19.836Z,3.87
2018-07-26T12:40:48.702Z,4.17
2018-07-26T12:43:17.541Z,3.77
2018-07-26T12:45:46.439Z,4.30
2018-07-26T12:48:15.264Z,4.20
2018-07-26T12:50:44.384Z,4.00
2018-07-26T12:53:13.313Z,4.00
2018-07-26T12:55:42.166Z,4.07
2018-07-26T12:58:11.013Z,4.10
2018-07-26T13:00:40.009Z,4.50
2018-07-26T13:03:08.960Z,3.87
2018-07-26T13:05:37.936Z,3.73
2018-07-26T13:08:06.904Z,3.80
2018-07-26T13:10:36.670Z,4.00
2018-07-26T13:13:05.728Z,4.23
2018-07-26T13:15:34.707Z,4.20
2018-07-26T13:18:03.571Z,4.25
2018-07-26T13:20:32.616Z,4.20
2018-07-26T13:23:01.603Z,4.00
2018-07-26T13:25:30.542Z,4.70
2018-07-26T13:27:59.436Z,4.30
2018-07-26T13:30:28.316Z,4.50
2018-07-26T13:32:57.254Z,3.80
2018-07-26T13:35:26.271Z,4.37
2018-07-26T13:37:55.161Z,4.13
2018-07-26T13:40:24.092Z,4.30
2018-07-26T13:42:53.103Z,4.80
2018-07-26T13:45:22.020Z,4.50
2018-07-26T13:47:50.929Z,4.90
2018-07-26T13:50:19.723Z,4.63
2018-07-26T13:52:48.592Z,4.53
2018-07-26T13:55:17.503Z,4.90
2018-07-26T13:57:46.414Z,4.50
2018-07-26T14:00:15.402Z,4.67
2018-07-26T14:02:44.558Z,4.07
2018-07-26T14:05:13.504Z,4.60
2018-07-26T14:07:42.368Z,4.10
2018-07-26T14:10:11.189Z,3.90
2018-07-26T14:12:40.243Z,4.37
2018-07-26T14:15:10.597Z,4.20
2018-07-26T14:17:39.968Z,4.40
2018-07-26T14:20:10.820Z,4.27
2018-07-26T14:22:40.143Z,4.23
2018-07-26T14:25:09.086Z,4.40
2018-07-26T14:27:38.028Z,4.40
2018-07-26T14:30:08.176Z,4.20
2018-07-26T14:32:37.073Z,3.90
2018-07-26T14:35:06.175Z,4.60
2018-07-26T14:37:35.148Z,4.33
2018-07-26T14:40:04.088Z,3.90
2018-07-26T14:42:32.910Z,3.53
2018-07-26T14:45:01.811Z,3.10
2018-07-26T14:47:30.657Z,3.43
2018-07-26T14:49:59.545Z,3.70
2018-07-26T14:52:28.486Z,3.27
2018-07-26T14:54:57.311Z,3.50
2018-07-26T14:57:26.171Z,3.60
2018-07-26T14:59:55.102Z,3.50
2018-07-26T15:02:24.014Z,3.67
2018-07-26T15:04:52.835Z,3.27
2018-07-26T15:07:21.730Z,3.23
2018-07-26T15:09:50.667Z,3.60
2018-07-26T15:12:19.601Z,3.80
2018-07-26T15:14:48.467Z,4.13
2018-07-26T15:17:17.284Z,3.97
2018-07-26T15:19:46.138Z,4.40
2018-07-26T15:22:15.014Z,5.00
2018-07-26T15:24:43.860Z,5.20
2018-07-26T15:27:12.792Z,5.43
2018-07-26T15:29:41.695Z,4.27
2018-07-26T15:32:10.665Z,4.20
2018-07-26T15:34:39.483Z,4.97
2018-07-26T15:37:08.385Z,15.93
2018-07-26T15:39:37.321Z,23.53
2018-07-26T15:42:06.269Z,6.23
2018-07-26T15:44:35.148Z,4.77
2018-07-26T15:47:04.098Z,4.50
2018-07-26T15:49:33.045Z,4.07
2018-07-26T15:52:01.969Z,4.10
2018-07-26T15:54:30.865Z,3.80
2018-07-26T15:56:59.752Z,3.53
2018-07-26T15:59:28.587Z,3.80
2018-07-26T16:01:57.610Z,3.97
2018-07-26T16:04:26.484Z,3.87
2018-07-26T16:06:55.371Z,4.17
2018-07-26T16:09:24.200Z,4.40
2018-07-26T16:11:53.012Z,4.67
2018-07-26T16:14:21.944Z,4.57
2018-07-26T16:16:50.798Z,4.67
2018-07-26T16:19:19.677Z,5.10
2018-07-26T16:21:48.578Z,3.57
2018-07-26T16:24:17.464Z,3.60
2018-07-26T16:26:46.328Z,4.60
2018-07-26T16:29:15.241Z,3.97
2018-07-26T16:31:44.044Z,3.17
2018-07-26T16:34:12.896Z,3.50
2018-07-26T16:36:41.921Z,3.00
2018-07-26T16:39:12.225Z,2.80
2018-07-26T16:41:41.066Z,2.70
2018-07-26T16:44:09.946Z,2.60
2018-07-26T16:46:38.912Z,2.70
2018-07-26T16:49:08.337Z,2.43
2018-07-26T16:51:37.263Z,2.87
2018-07-26T16:54:06.165Z,2.80
2018-07-26T16:56:35.008Z,2.67
2018-07-26T16:59:03.864Z,3.27
2018-07-26T17:01:32.819Z,3.00
2018-07-26T17:04:01.719Z,3.07
2018-07-26T17:06:30.508Z,2.93
2018-07-26T17:08:59.432Z,3.30
2018-07-26T17:11:28.467Z,3.30
2018-07-26T17:13:57.356Z,3.30
2018-07-26T17:16:26.244Z,3.17
2018-07-26T17:18:55.161Z,3.23
2018-07-26T17:21:23.999Z,3.37
2018-07-26T17:23:52.825Z,3.00
2018-07-26T17:26:21.756Z,3.23
2018-07-26T17:28:50.724Z,4.20
2018-07-26T17:31:19.591Z,3.87
2018-07-26T17:33:48.503Z,4.80
2018-07-26T17:36:17.258Z,4.57
2018-07-26T17:38:46.201Z,4.10
2018-07-26T17:41:15.073Z,4.63
2018-07-26T17:43:43.932Z,4.60
2018-07-26T17:46:12.742Z,4.50
2018-07-26T17:48:41.637Z,4.30
2018-07-26T17:51:10.522Z,4.70
2018-07-26T17:53:39.397Z,3.93
2018-07-26T17:56:08.355Z,4.33
2018-07-26T17:58:37.207Z,4.13
2018-07-26T18:01:06.174Z,4.00
2018-07-26T18:03:35.012Z,3.90
2018-07-26T18:06:04.006Z,4.73
2018-07-26T18:08:32.854Z,4.10
2018-07-26T18:11:01.729Z,4.40
2018-07-26T18:13:30.588Z,4.43
2018-07-26T18:15:59.401Z,4.60
2018-07-26T18:18:28.360Z,4.63
2018-07-26T18:20:57.215Z,4.50
2018-07-26T18:23:26.047Z,4.40
2018-07-26T18:25:54.913Z,4.40
2018-07-26T18:28:23.976Z,5.03
2018-07-26T18:30:52.780Z,4.20
2018-07-26T18:33:21.716Z,3.80
2018-07-26T18:35:50.592Z,4.10
2018-07-26T18:38:19.556Z,3.80
2018-07-26T18:40:48.372Z,3.50
2018-07-26T18:43:17.250Z,3.60
2018-07-26T18:45:46.123Z,3.70
2018-07-26T18:48:14.961Z,3.70
2018-07-26T18:50:43.838Z,3.90
2018-07-26T18:53:12.838Z,3.50
2018-07-26T18:55:41.670Z,3.50
2018-07-26T18:58:10.537Z,3.70
2018-07-26T19:00:39.365Z,3.83
2018-07-26T19:03:08.304Z,3.20
2018-07-26T19:05:37.237Z,3.63
2018-07-26T19:08:07.066Z,3.80
2018-07-26T19:10:35.833Z,3.83
2018-07-26T19:13:04.680Z,3.90
2018-07-26T19:15:33.521Z,3.73
2018-07-26T19:18:02.408Z,3.50
2018-07-26T19:20:31.226Z,3.50
2018-07-26T19:23:00.043Z,3.60
2018-07-26T19:25:29.643Z,3.53
2018-07-26T19:27:59.056Z,3.43
2018-07-26T19:30:27.843Z,3.43
2018-07-26T19:32:56.690Z,3.77
2018-07-26T19:35:25.498Z,3.17
2018-07-26T19:37:54.344Z,3.87
2018-07-26T19:40:23.194Z,3.03
2018-07-26T19:42:52.052Z,3.53
2018-07-26T19:45:20.908Z,3.50
2018-07-26T19:47:49.754Z,3.67
2018-07-26T19:50:18.568Z,3.67
2018-07-26T19:52:47.385Z,3.70
2018-07-26T19:55:16.257Z,3.40
2018-07-26T19:57:45.047Z,3.80
2018-07-26T20:00:13.895Z,3.43
2018-07-26T20:02:42.837Z,3.67
2018-07-26T20:05:11.669Z,4.00
2018-07-26T20:07:40.776Z,3.90
2018-07-26T20:10:11.885Z,3.80
2018-07-26T20:12:41.129Z,3.60
2018-07-26T20:15:10.014Z,3.87
2018-07-26T20:17:38.923Z,4.50
2018-07-26T20:20:09.962Z,3.77
2018-07-26T20:22:38.779Z,3.67
2018-07-26T20:25:07.789Z,3.97
2018-07-26T20:27:36.581Z,4.33
2018-07-26T20:30:07.307Z,3.97
2018-07-26T20:32:36.277Z,4.40
2018-07-26T20:35:05.498Z,4.07
2018-07-26T20:37:34.337Z,4.10
2018-07-26T20:40:03.286Z,3.47
2018-07-26T20:42:32.128Z,4.10
2018-07-26T20:45:01.024Z,4.07
2018-07-26T20:47:29.950Z,3.93
2018-07-26T20:49:58.770Z,4.20
2018-07-26T20:52:27.612Z,4.00
2018-07-26T20:54:56.493Z,4.10
2018-07-26T20:57:25.301Z,4.57
2018-07-26T20:59:54.040Z,4.10
2018-07-26T21:02:22.949Z,4.57
2018-07-26T21:04:51.752Z,4.50
2018-07-26T21:07:21.216Z,4.27
2018-07-26T21:09:50.030Z,4.20
2018-07-26T21:12:18.840Z,4.30
2018-07-26T21:14:47.647Z,4.30
2018-07-26T21:17:16.481Z,4.37
2018-07-26T21:19:45.293Z,4.23
2018-07-26T21:22:14.093Z,4.20
2018-07-26T21:24:42.932Z,4.53
2018-07-26T21:27:11.780Z,4.13
2018-07-26T21:29:40.727Z,4.23
2018-07-26T21:32:09.603Z,4.20
2018-07-26T21:34:38.364Z,4.50
2018-07-26T21:37:07.166Z,4.50
2018-07-26T21:39:36.049Z,4.57
2018-07-26T21:42:04.923Z,4.67
2018-07-26T21:44:33.776Z,4.23
2018-07-26T21:47:02.609Z,4.20
2018-07-26T21:49:31.425Z,4.40
2018-07-26T21:52:00.247Z,4.27
2018-07-26T21:54:29.136Z,4.27
2018-07-26T21:56:58.042Z,4.37
2018-07-26T21:59:26.908Z,4.03
2018-07-26T22:01:55.865Z,4.40
2018-07-26T22:04:24.734Z,4.00
2018-07-26T22:06:53.610Z,4.17
2018-07-26T22:09:22.515Z,4.00
2018-07-26T22:11:51.335Z,4.33
2018-07-26T22:14:20.141Z,4.27
2018-07-26T22:16:49.063Z,4.27
2018-07-26T22:19:17.925Z,4.23
2018-07-26T22:21:46.751Z,4.47
2018-07-26T22:24:15.610Z,4.67
2018-07-26T22:26:44.472Z,5.53
2018-07-26T22:29:13.428Z,5.63
2018-07-26T22:31:42.336Z,5.73
2018-07-26T22:34:11.211Z,5.33
2018-07-26T22:36:40.158Z,5.50
2018-07-26T22:39:10.739Z,5.87
2018-07-26T22:41:39.693Z,5.40
2018-07-26T22:44:08.691Z,5.50
2018-07-26T22:46:37.636Z,5.47
2018-07-26T22:49:06.644Z,5.70
2018-07-26T22:51:35.617Z,6.40
2018-07-26T22:54:04.902Z,6.00
2018-07-26T22:56:34.066Z,4.90
2018-07-26T22:59:03.034Z,5.20
2018-07-26T23:01:31.974Z,5.60
2018-07-26T23:04:00.888Z,5.47
2018-07-26T23:06:29.790Z,5.33
2018-07-26T23:08:58.727Z,5.40
2018-07-26T23:11:27.688Z,5.67
2018-07-26T23:13:56.513Z,5.63
2018-07-26T23:16:25.400Z,5.43
2018-07-26T23:18:54.325Z,5.67
2018-07-26T23:21:23.250Z,5.50
2018-07-26T23:23:52.116Z,5.43
2018-07-26T23:26:20.998Z,5.90
2018-07-26T23:28:49.868Z,5.33
2018-07-26T23:31:18.928Z,5.60
2018-07-26T23:33:47.789Z,5.70
2018-07-26T23:36:16.764Z,5.13
2018-07-26T23:38:45.805Z,5.07
2018-07-26T23:41:14.608Z,5.40
2018-07-26T23:43:43.499Z,5.33
2018-07-26T23:46:12.461Z,4.80
2018-07-26T23:48:41.346Z,5.00
2018-07-26T23:51:10.274Z,5.00
2018-07-26T23:53:39.266Z,5.23
2018-07-26T23:56:08.089Z,5.47
2018-07-26T23:58:36.949Z,5.83
